createdAt,value
2019-02-17T00:02:07.771Z,8.67
2019-02-17T00:04:35.880Z,8.67
2019-02-17T00:07:03.981Z,8.65
2019-02-17T00:09:33.155Z,8.63
2019-02-17T00:12:01.521Z,8.60
2019-02-17T00:14:29.662Z,8.57
2019-02-17T00:16:57.698Z,8.55
2019-02-17T00:19:25.821Z,8.51
2019-02-17T00:21:53.880Z,8.48
2019-02-17T00:24:21.970Z,8.48
2019-02-17T00:26:50.001Z,8.44
2019-02-17T00:29:19.612Z,8.40
2019-02-17T00:31:47.772Z,8.37
2019-02-17T00:34:15.852Z,8.37
2019-02-17T00:36:43.876Z,8.36
2019-02-17T00:39:12.268Z,8.31
2019-02-17T00:41:40.390Z,8.31
2019-02-17T00:44:08.439Z,8.30
2019-02-17T00:46:36.548Z,8.29
2019-02-17T00:49:04.626Z,8.26
2019-02-17T00:51:33.166Z,8.25
2019-02-17T00:54:01.533Z,8.24
2019-02-17T00:56:29.578Z,8.23
2019-02-17T00:58:57.630Z,8.19
2019-02-17T01:01:26.786Z,8.15
2019-02-17T01:03:54.953Z,8.09
2019-02-17T01:06:22.993Z,8.07
2019-02-17T01:08:51.051Z,8.02
2019-02-17T01:11:19.077Z,8.00
2019-02-17T01:13:47.165Z,7.97
2019-02-17T01:16:15.385Z,7.94
2019-02-17T01:18:43.470Z,7.94
2019-02-17T01:21:12.216Z,7.90
2019-02-17T01:23:41.361Z,7.87
2019-02-17T01:26:09.421Z,7.86
2019-02-17T01:28:37.470Z,7.86
2019-02-17T01:31:05.500Z,7.85
2019-02-17T01:33:34.997Z,7.86
2019-02-17T01:36:03.058Z,7.83
2019-02-17T01:38:31.330Z,7.80
2019-02-17T01:40:59.365Z,7.78
2019-02-17T01:43:27.783Z,7.79
2019-02-17T01:45:55.874Z,7.80
2019-02-17T01:48:23.947Z,7.80
2019-02-17T01:50:52.081Z,7.78
2019-02-17T01:53:20.162Z,7.77
2019-02-17T01:55:48.208Z,7.74
2019-02-17T01:58:17.652Z,7.70
2019-02-17T02:00:45.728Z,7.68
2019-02-17T02:03:13.786Z,7.66
2019-02-17T02:05:41.851Z,7.63
2019-02-17T02:08:10.203Z,7.60
2019-02-17T02:10:38.301Z,7.58
2019-02-17T02:13:06.346Z,7.54
2019-02-17T02:15:34.543Z,7.52
2019-02-17T02:18:03.412Z,7.50
2019-02-17T02:20:31.586Z,7.46
2019-02-17T02:22:59.642Z,7.43
2019-02-17T02:25:27.684Z,7.39
2019-02-17T02:27:56.023Z,7.37
2019-02-17T02:30:24.420Z,7.33
2019-02-17T02:32:53.087Z,7.29
2019-02-17T02:35:21.158Z,7.26
2019-02-17T02:37:49.533Z,7.26
2019-02-17T02:40:17.633Z,7.22
2019-02-17T02:42:45.627Z,7.17
2019-02-17T02:45:13.712Z,7.12
2019-02-17T02:47:41.774Z,7.10
2019-02-17T02:50:11.134Z,7.07
2019-02-17T02:52:39.260Z,7.05
2019-02-17T02:55:07.878Z,7.04
2019-02-17T02:57:35.949Z,7.03
2019-02-17T03:00:06.319Z,7.02
2019-02-17T03:02:34.779Z,6.98
2019-02-17T03:05:04.405Z,6.97
2019-02-17T03:07:32.904Z,6.94
2019-02-17T03:10:02.511Z,6.91
2019-02-17T03:12:30.940Z,6.88
2019-02-17T03:14:59.045Z,6.87
2019-02-17T03:17:27.343Z,6.84
2019-02-17T03:19:55.411Z,6.79
2019-02-17T03:22:23.485Z,6.73
2019-02-17T03:24:51.559Z,6.70
2019-02-17T03:27:19.637Z,6.67
2019-02-17T03:29:48.112Z,6.65
2019-02-17T03:32:17.381Z,6.61
2019-02-17T03:34:46.838Z,6.55
2019-02-17T03:37:15.027Z,6.50
2019-02-17T03:39:43.507Z,6.49
2019-02-17T03:42:13.370Z,6.49
2019-02-17T03:44:41.675Z,6.44
2019-02-17T03:47:09.752Z,6.42
2019-02-17T03:49:38.101Z,6.41
2019-02-17T03:52:06.237Z,6.38
2019-02-17T03:54:36.404Z,6.38
2019-02-17T03:57:04.486Z,6.35
2019-02-17T03:59:33.530Z,6.34
2019-02-17T04:02:01.610Z,6.34
2019-02-17T04:04:29.788Z,6.34
2019-02-17T04:06:57.829Z,6.35
2019-02-17T04:09:27.810Z,6.32
2019-02-17T04:11:56.253Z,6.31
2019-02-17T04:14:24.330Z,6.29
2019-02-17T04:16:52.481Z,6.25
2019-02-17T04:19:20.626Z,6.19
2019-02-17T04:21:50.729Z,6.17
2019-02-17T04:24:18.811Z,6.13
2019-02-17T04:26:47.254Z,6.09
2019-02-17T04:29:15.322Z,6.05
2019-02-17T04:31:43.395Z,6.02
2019-02-17T04:34:12.563Z,6.01
2019-02-17T04:36:40.769Z,5.99
2019-02-17T04:39:08.854Z,5.98
2019-02-17T04:41:37.020Z,5.98
2019-02-17T04:44:05.090Z,5.96
2019-02-17T04:46:34.272Z,5.94
2019-02-17T04:49:02.500Z,5.94
2019-02-17T04:51:30.835Z,5.92
2019-02-17T04:53:59.398Z,5.89
2019-02-17T04:56:28.832Z,5.87
2019-02-17T04:58:56.907Z,5.88
2019-02-17T05:01:27.125Z,5.87
2019-02-17T05:03:55.214Z,5.87
2019-02-17T05:06:23.274Z,5.84
2019-02-17T05:08:51.340Z,5.82
2019-02-17T05:11:19.636Z,5.82
2019-02-17T05:13:47.722Z,5.81
2019-02-17T05:16:16.175Z,5.79
2019-02-17T05:18:44.232Z,5.78
2019-02-17T05:21:12.657Z,5.74
2019-02-17T05:23:40.759Z,5.72
2019-02-17T05:26:08.828Z,5.66
2019-02-17T05:28:39.014Z,5.60
2019-02-17T05:31:07.390Z,5.57
2019-02-17T05:33:35.564Z,5.51
2019-02-17T05:36:03.639Z,5.46
2019-02-17T05:38:31.788Z,5.43
2019-02-17T05:40:59.969Z,5.39
2019-02-17T05:43:29.090Z,5.35
2019-02-17T05:45:57.625Z,5.33
2019-02-17T05:48:25.683Z,5.31
2019-02-17T05:50:53.934Z,5.31
2019-02-17T05:53:22.037Z,5.29
2019-02-17T05:55:50.149Z,5.26
2019-02-17T05:58:18.542Z,5.24
2019-02-17T06:00:46.867Z,5.24
2019-02-17T06:03:15.134Z,5.22
2019-02-17T06:05:43.228Z,5.18
2019-02-17T06:08:11.298Z,5.17
2019-02-17T06:10:39.723Z,5.15
2019-02-17T06:13:08.184Z,5.14
2019-02-17T06:15:36.336Z,5.13
2019-02-17T06:18:06.076Z,5.11
2019-02-17T06:20:34.171Z,5.08
2019-02-17T06:23:02.243Z,5.07
2019-02-17T06:25:30.346Z,5.05
2019-02-17T06:27:58.415Z,5.04
2019-02-17T06:30:26.484Z,5.03
2019-02-17T06:32:54.914Z,5.05
2019-02-17T06:35:23.082Z,5.06
2019-02-17T06:37:51.142Z,5.07
2019-02-17T06:40:20.340Z,5.09
2019-02-17T06:42:48.428Z,5.12
2019-02-17T06:45:19.537Z,5.14
2019-02-17T06:47:46.797Z,5.14
2019-02-17T06:50:14.893Z,5.14
2019-02-17T06:52:43.042Z,5.14
2019-02-17T06:55:24.508Z,5.13
2019-02-17T06:57:52.569Z,5.12
2019-02-17T07:00:40.310Z,5.12
2019-02-17T07:03:08.699Z,5.13
2019-02-17T07:05:59.431Z,5.14
2019-02-17T07:08:28.645Z,5.16
2019-02-17T07:10:56.722Z,5.18
2019-02-17T07:13:25.988Z,5.20
2019-02-17T07:15:55.762Z,5.22
2019-02-17T07:18:23.864Z,5.28
2019-02-17T07:20:52.194Z,5.35
2019-02-17T07:23:20.354Z,5.42
2019-02-17T07:25:48.733Z,5.53
2019-02-17T07:28:16.920Z,5.63
2019-02-17T07:30:45.371Z,5.77
2019-02-17T07:33:13.925Z,5.93
2019-02-17T07:35:42.426Z,6.09
2019-02-17T07:38:10.536Z,6.28
2019-02-17T07:40:40.402Z,6.50
2019-02-17T07:43:08.451Z,6.70
2019-02-17T07:45:36.795Z,6.94
2019-02-17T07:48:04.838Z,7.17
2019-02-17T07:50:33.398Z,7.46
2019-02-17T07:53:01.451Z,7.75
2019-02-17T07:55:31.080Z,8.02
2019-02-17T07:57:59.265Z,8.30
2019-02-17T08:00:27.306Z,8.61
2019-02-17T08:02:55.482Z,8.89
2019-02-17T08:05:24.285Z,9.18
2019-02-17T08:07:52.678Z,9.50
2019-02-17T08:10:20.755Z,9.84
2019-02-17T08:12:50.061Z,10.18
2019-02-17T08:15:18.115Z,10.51
2019-02-17T08:17:46.522Z,10.85
2019-02-17T08:20:14.577Z,11.16
2019-02-17T08:22:42.778Z,11.48
2019-02-17T08:25:21.416Z,11.78
2019-02-17T08:27:41.928Z,12.11
2019-02-17T08:30:12.587Z,12.48
2019-02-17T08:32:40.811Z,12.86
2019-02-17T08:35:09.218Z,13.24
2019-02-17T08:37:57.040Z,13.59
2019-02-17T08:40:26.374Z,13.91
2019-02-17T08:42:54.476Z,14.28
2019-02-17T08:45:24.264Z,14.60
2019-02-17T08:47:52.681Z,14.91
2019-02-17T08:50:20.833Z,15.21
2019-02-17T08:52:50.750Z,15.54
2019-02-17T08:55:18.796Z,15.83
2019-02-17T08:57:48.070Z,16.11
2019-02-17T09:00:16.198Z,16.38
2019-02-17T09:02:44.560Z,16.65
2019-02-17T09:05:12.597Z,16.94
2019-02-17T09:07:40.674Z,17.20
2019-02-17T09:10:10.342Z,17.46
2019-02-17T09:12:39.104Z,17.77
2019-02-17T09:15:09.134Z,18.09
2019-02-17T09:17:37.636Z,18.36
2019-02-17T09:20:08.019Z,18.61
2019-02-17T09:22:37.374Z,18.87
2019-02-17T09:25:07.371Z,19.13
2019-02-17T09:27:35.480Z,19.37
2019-02-17T09:30:05.966Z,19.66
2019-02-17T09:32:34.043Z,19.98
2019-02-17T09:35:03.192Z,20.26
2019-02-17T09:37:32.024Z,20.49
2019-02-17T09:40:00.668Z,20.84
2019-02-17T09:42:29.366Z,21.21
2019-02-17T09:44:57.828Z,21.59
2019-02-17T09:47:26.042Z,21.91
2019-02-17T09:49:54.358Z,22.25
2019-02-17T09:52:22.583Z,22.59
2019-02-17T09:54:50.732Z,22.87
2019-02-17T09:57:18.905Z,23.23
2019-02-17T09:59:47.060Z,23.60
2019-02-17T10:02:15.432Z,23.99
2019-02-17T10:04:43.621Z,24.37
2019-02-17T10:07:11.691Z,24.76
2019-02-17T10:09:39.879Z,25.14
2019-02-17T10:12:08.030Z,25.45
2019-02-17T10:14:36.078Z,25.77
2019-02-17T10:17:04.251Z,26.06
2019-02-17T10:19:32.640Z,26.24
2019-02-17T10:22:01.295Z,26.36
2019-02-17T10:24:29.556Z,26.44
2019-02-17T10:26:57.659Z,26.51
2019-02-17T10:29:25.885Z,26.55
2019-02-17T10:31:53.999Z,26.47
2019-02-17T10:34:22.175Z,26.42
2019-02-17T10:36:50.249Z,26.43
2019-02-17T10:39:18.757Z,26.54
2019-02-17T10:41:46.830Z,26.73
2019-02-17T10:44:15.016Z,26.97
2019-02-17T10:46:43.335Z,27.19
2019-02-17T10:49:11.610Z,27.48
2019-02-17T10:51:39.909Z,27.77
2019-02-17T10:54:08.858Z,28.06
2019-02-17T10:56:37.005Z,28.35
2019-02-17T10:59:05.099Z,28.59
2019-02-17T11:01:33.273Z,28.90
2019-02-17T11:04:09.627Z,29.23
2019-02-17T11:06:37.830Z,29.52
2019-02-17T11:09:24.728Z,29.81
2019-02-17T11:11:52.830Z,30.11
2019-02-17T11:14:21.086Z,30.48
2019-02-17T11:16:50.553Z,30.86
2019-02-17T11:19:18.740Z,31.28
2019-02-17T11:21:46.970Z,31.71
2019-02-17T11:24:15.095Z,32.04
2019-02-17T11:26:45.966Z,32.32
2019-02-17T11:29:14.304Z,32.58
2019-02-17T11:31:42.387Z,32.82
2019-02-17T11:34:11.684Z,33.04
2019-02-17T11:36:40.146Z,33.23
2019-02-17T11:39:17.722Z,33.44
2019-02-17T11:41:45.775Z,33.59
2019-02-17T11:44:14.478Z,33.64
2019-02-17T11:46:42.769Z,33.65
2019-02-17T11:49:11.135Z,33.62
2019-02-17T11:51:39.219Z,33.69
2019-02-17T11:54:07.793Z,33.82
2019-02-17T11:56:36.197Z,33.96
2019-02-17T11:59:04.341Z,34.08
2019-02-17T12:01:33.740Z,34.28
2019-02-17T12:04:01.966Z,34.46
2019-02-17T12:06:30.383Z,34.63
2019-02-17T12:08:58.447Z,34.82
2019-02-17T12:11:26.502Z,35.03
2019-02-17T12:13:54.685Z,35.27
2019-02-17T12:16:22.807Z,35.55
2019-02-17T12:18:51.311Z,35.83
2019-02-17T12:21:35.670Z,36.08
2019-02-17T12:24:11.571Z,36.26
2019-02-17T12:26:58.551Z,36.30
2019-02-17T12:29:32.719Z,36.30
2019-02-17T12:32:00.780Z,36.47
2019-02-17T12:34:28.925Z,36.58
2019-02-17T12:36:56.995Z,36.70
2019-02-17T12:39:25.422Z,36.84
2019-02-17T12:41:53.854Z,36.93
2019-02-17T12:44:22.121Z,37.05
2019-02-17T12:46:50.165Z,37.23
2019-02-17T12:49:18.311Z,37.34
2019-02-17T12:51:46.493Z,37.44
2019-02-17T12:54:14.765Z,37.50
2019-02-17T12:56:42.802Z,37.55
2019-02-17T12:59:10.983Z,37.46
2019-02-17T13:01:39.741Z,37.36
2019-02-17T13:04:09.326Z,37.29
2019-02-17T13:06:37.423Z,36.96
2019-02-17T13:09:07.089Z,36.79
2019-02-17T13:11:35.138Z,36.84
2019-02-17T13:14:03.323Z,36.95
2019-02-17T13:16:31.412Z,37.05
2019-02-17T13:18:59.785Z,37.16
2019-02-17T13:21:27.887Z,37.26
2019-02-17T13:23:56.096Z,37.28
2019-02-17T13:26:24.392Z,37.17
2019-02-17T13:28:52.436Z,37.08
2019-02-17T13:31:21.603Z,37.14
2019-02-17T13:33:49.904Z,37.27
2019-02-17T13:36:19.326Z,37.41
2019-02-17T13:38:48.854Z,37.56
2019-02-17T13:41:17.028Z,37.63
2019-02-17T13:43:45.207Z,37.65
2019-02-17T13:46:13.465Z,37.66
2019-02-17T13:48:41.529Z,37.66
2019-02-17T13:51:09.962Z,37.63
2019-02-17T13:53:39.835Z,37.60
2019-02-17T13:56:08.140Z,37.62
2019-02-17T13:58:37.389Z,37.67
2019-02-17T14:01:06.646Z,37.63
2019-02-17T14:03:34.711Z,37.61
2019-02-17T14:06:03.350Z,37.52
2019-02-17T14:08:33.310Z,37.46
2019-02-17T14:11:02.727Z,37.37
2019-02-17T14:13:30.789Z,37.30
2019-02-17T14:15:59.539Z,37.30
2019-02-17T14:18:28.018Z,37.35
2019-02-17T14:20:56.195Z,37.35
2019-02-17T14:23:24.649Z,37.34
2019-02-17T14:25:52.694Z,37.34
2019-02-17T14:28:20.975Z,37.35
2019-02-17T14:30:49.200Z,37.33
2019-02-17T14:33:17.323Z,37.30
2019-02-17T14:35:45.374Z,37.23
2019-02-17T14:38:14.035Z,37.12
2019-02-17T14:40:43.561Z,36.85
2019-02-17T14:43:11.628Z,36.58
2019-02-17T14:45:39.984Z,36.30
2019-02-17T14:48:11.388Z,36.10
2019-02-17T14:50:39.669Z,35.94
2019-02-17T14:53:07.699Z,35.80
2019-02-17T14:55:35.816Z,35.70
2019-02-17T14:58:05.622Z,35.62
2019-02-17T15:00:34.007Z,35.51
2019-02-17T15:03:02.231Z,35.35
2019-02-17T15:05:30.398Z,35.07
2019-02-17T15:07:58.742Z,34.59
2019-02-17T15:10:27.064Z,34.28
2019-02-17T15:12:55.140Z,34.04
2019-02-17T15:15:23.193Z,33.84
2019-02-17T15:17:51.616Z,33.68
2019-02-17T15:20:19.705Z,33.59
2019-02-17T15:22:49.311Z,33.50
2019-02-17T15:25:17.455Z,33.34
2019-02-17T15:27:45.535Z,33.23
2019-02-17T15:30:13.816Z,33.16
2019-02-17T15:32:42.051Z,33.08
2019-02-17T15:35:10.460Z,32.96
2019-02-17T15:37:38.839Z,32.77
2019-02-17T15:40:08.061Z,32.62
2019-02-17T15:42:36.574Z,32.46
2019-02-17T15:45:06.149Z,32.31
2019-02-17T15:47:35.124Z,32.15
2019-02-17T15:50:04.045Z,32.03
2019-02-17T15:52:32.131Z,31.92
2019-02-17T15:55:00.402Z,31.79
2019-02-17T15:57:28.629Z,31.67
2019-02-17T15:59:56.683Z,31.53
2019-02-17T16:02:24.799Z,31.37
2019-02-17T16:04:52.879Z,31.20
2019-02-17T16:07:21.970Z,31.05
2019-02-17T16:09:50.374Z,30.86
2019-02-17T16:12:18.460Z,30.65
2019-02-17T16:14:46.926Z,30.42
2019-02-17T16:17:15.007Z,30.16
2019-02-17T16:19:44.424Z,29.90
2019-02-17T16:22:12.545Z,29.61
2019-02-17T16:24:40.629Z,29.31
2019-02-17T16:27:08.749Z,28.99
2019-02-17T16:29:37.133Z,28.66
2019-02-17T16:32:05.513Z,28.33
2019-02-17T16:34:38.461Z,27.98
2019-02-17T16:37:06.116Z,27.63
2019-02-17T16:39:36.516Z,27.27
2019-02-17T16:42:04.602Z,26.94
2019-02-17T16:44:32.635Z,26.60
2019-02-17T16:47:02.116Z,26.28
2019-02-17T16:49:30.174Z,25.95
2019-02-17T16:51:58.271Z,25.64
2019-02-17T16:54:26.368Z,25.34
2019-02-17T16:56:54.466Z,25.02
2019-02-17T16:59:22.517Z,24.73
2019-02-17T17:01:51.832Z,24.42
2019-02-17T17:04:20.525Z,24.14
2019-02-17T17:06:48.550Z,23.83
2019-02-17T17:09:17.077Z,23.53
2019-02-17T17:11:45.220Z,23.16
2019-02-17T17:14:13.495Z,22.76
2019-02-17T17:16:41.743Z,22.34
2019-02-17T17:19:10.052Z,21.96
2019-02-17T17:21:38.267Z,21.57
2019-02-17T17:24:06.411Z,21.20
2019-02-17T17:26:34.761Z,20.86
2019-02-17T17:29:03.065Z,20.52
2019-02-17T17:31:31.380Z,20.22
2019-02-17T17:34:00.762Z,19.97
2019-02-17T17:36:29.302Z,19.73
2019-02-17T17:38:58.414Z,19.46
2019-02-17T17:41:31.341Z,19.14
2019-02-17T17:43:59.813Z,18.84
2019-02-17T17:46:27.940Z,18.57
2019-02-17T17:48:56.059Z,18.34
2019-02-17T17:51:24.259Z,18.10
2019-02-17T17:53:54.951Z,17.88
2019-02-17T17:56:23.148Z,17.67
2019-02-17T17:58:51.686Z,17.49
2019-02-17T18:01:19.953Z,17.31
2019-02-17T18:03:48.058Z,17.09
2019-02-17T18:06:16.576Z,16.87
2019-02-17T18:08:44.927Z,16.67
2019-02-17T18:11:13.132Z,16.47
2019-02-17T18:13:41.508Z,16.24
2019-02-17T18:16:11.877Z,16.03
2019-02-17T18:18:40.344Z,15.84
2019-02-17T18:21:09.412Z,15.67
2019-02-17T18:23:40.396Z,15.50
2019-02-17T18:26:10.154Z,15.36
2019-02-17T18:28:38.420Z,15.24
2019-02-17T18:31:06.465Z,15.16
2019-02-17T18:33:35.046Z,15.07
2019-02-17T18:36:04.577Z,14.98
2019-02-17T18:38:33.128Z,14.93
2019-02-17T18:41:01.315Z,14.84
2019-02-17T18:43:29.614Z,14.77
2019-02-17T18:45:57.764Z,14.73
2019-02-17T18:48:25.871Z,14.70
2019-02-17T18:50:59.152Z,14.65
2019-02-17T18:53:26.089Z,14.61
2019-02-17T18:55:54.182Z,14.54
2019-02-17T18:58:22.298Z,14.44
2019-02-17T19:00:50.721Z,14.33
2019-02-17T19:03:19.966Z,14.23
2019-02-17T19:05:48.438Z,14.12
2019-02-17T19:08:16.848Z,14.03
2019-02-17T19:10:44.891Z,13.93
2019-02-17T19:13:13.080Z,13.83
2019-02-17T19:15:41.167Z,13.74
2019-02-17T19:18:09.951Z,13.65
2019-02-17T19:20:38.500Z,13.58
2019-02-17T19:23:06.833Z,13.52
2019-02-17T19:25:36.206Z,13.45
2019-02-17T19:28:04.365Z,13.37
2019-02-17T19:30:34.409Z,13.30
2019-02-17T19:33:02.557Z,13.21
2019-02-17T19:35:39.418Z,13.14
2019-02-17T19:38:01.020Z,13.07
2019-02-17T19:40:29.446Z,12.97
2019-02-17T19:42:57.616Z,12.88
2019-02-17T19:45:26.133Z,12.79
2019-02-17T19:47:54.225Z,12.72
2019-02-17T19:50:22.626Z,12.64
2019-02-17T19:52:50.783Z,12.58
2019-02-17T19:55:19.096Z,12.53
2019-02-17T19:57:47.373Z,12.46
2019-02-17T20:00:15.788Z,12.39
2019-02-17T20:03:04.587Z,12.33
2019-02-17T20:05:35.610Z,12.24
2019-02-17T20:08:04.125Z,12.19
2019-02-17T20:10:32.443Z,12.11
2019-02-17T20:13:01.249Z,12.06
2019-02-17T20:15:31.562Z,12.01
2019-02-17T20:17:59.626Z,11.95
2019-02-17T20:20:29.464Z,11.86
2019-02-17T20:22:57.874Z,11.80
2019-02-17T20:25:27.232Z,11.75
2019-02-17T20:27:55.480Z,11.72
2019-02-17T20:30:25.297Z,11.68
2019-02-17T20:32:53.517Z,11.64
2019-02-17T20:35:21.799Z,11.60
2019-02-17T20:37:50.004Z,11.53
2019-02-17T20:40:18.428Z,11.48
2019-02-17T20:42:46.563Z,11.46
2019-02-17T20:45:14.957Z,11.43
2019-02-17T20:47:43.513Z,11.40
2019-02-17T20:50:11.838Z,11.36
2019-02-17T20:52:40.033Z,11.32
2019-02-17T20:55:08.233Z,11.28
2019-02-17T20:57:38.435Z,11.24
2019-02-17T21:00:07.652Z,11.21
2019-02-17T21:02:36.135Z,11.19
2019-02-17T21:05:04.786Z,11.17
2019-02-17T21:07:32.980Z,11.15
2019-02-17T21:10:01.210Z,11.15
2019-02-17T21:12:29.865Z,11.14
2019-02-17T21:14:58.046Z,11.11
2019-02-17T21:17:26.355Z,11.10
2019-02-17T21:19:56.265Z,11.07
2019-02-17T21:22:24.641Z,11.06
2019-02-17T21:24:52.721Z,11.02
2019-02-17T21:27:21.322Z,10.97
2019-02-17T21:29:49.495Z,10.92
2019-02-17T21:32:17.565Z,10.89
2019-02-17T21:34:46.125Z,10.86
2019-02-17T21:37:14.517Z,10.84
2019-02-17T21:39:42.949Z,10.82
2019-02-17T21:42:11.092Z,10.79
2019-02-17T21:44:39.337Z,10.76
2019-02-17T21:47:07.496Z,10.75
2019-02-17T21:49:36.075Z,10.72
2019-02-17T21:52:04.265Z,10.69
2019-02-17T21:54:32.410Z,10.67
2019-02-17T21:57:02.624Z,10.61
2019-02-17T21:59:31.904Z,10.58
2019-02-17T22:01:59.982Z,10.54
2019-02-17T22:04:28.586Z,10.50
2019-02-17T22:06:58.493Z,10.46
2019-02-17T22:09:26.646Z,10.39
2019-02-17T22:11:55.034Z,10.33
2019-02-17T22:14:24.408Z,10.27
2019-02-17T22:16:52.792Z,10.24
2019-02-17T22:19:21.289Z,10.20
2019-02-17T22:21:49.332Z,10.16
2019-02-17T22:24:17.376Z,10.11
2019-02-17T22:26:47.303Z,10.11
2019-02-17T22:29:15.383Z,10.07
2019-02-17T22:31:43.584Z,10.04
2019-02-17T22:34:11.995Z,10.02
2019-02-17T22:36:43.690Z,9.99
2019-02-17T22:39:11.246Z,9.96
2019-02-17T22:41:40.283Z,9.94
2019-02-17T22:44:09.545Z,9.91
2019-02-17T22:46:37.744Z,9.88
2019-02-17T22:49:07.483Z,9.85
2019-02-17T22:51:35.624Z,9.83
2019-02-17T22:54:03.708Z,9.82
2019-02-17T22:56:31.789Z,9.78
2019-02-17T22:58:59.840Z,9.75
2019-02-17T23:01:31.105Z,9.73
2019-02-17T23:03:59.259Z,9.69
2019-02-17T23:06:29.151Z,9.65
2019-02-17T23:08:57.301Z,9.59
2019-02-17T23:11:25.392Z,9.55
2019-02-17T23:13:53.805Z,9.53
2019-02-17T23:16:21.868Z,9.48
2019-02-17T23:18:50.230Z,9.45
2019-02-17T23:21:19.911Z,9.42
2019-02-17T23:23:47.974Z,9.38
2019-02-17T23:26:16.056Z,9.32
2019-02-17T23:28:44.786Z,9.27
2019-02-17T23:31:13.183Z,9.23
2019-02-17T23:33:41.302Z,9.20
2019-02-17T23:36:09.400Z,9.15
2019-02-17T23:38:37.495Z,9.12
2019-02-17T23:41:07.304Z,9.09
2019-02-17T23:43:37.511Z,9.06
2019-02-17T23:46:06.606Z,9.02
2019-02-17T23:48:34.694Z,8.98
2019-02-17T23:51:02.895Z,8.94
2019-02-17T23:53:31.295Z,8.89
2019-02-17T23:55:59.487Z,8.83
2019-02-17T23:58:27.925Z,8.79
